»·PEaware :: N829EW KFHR-KRNO

N829EW :: KFHR-KRNO

FLIGHT INFORMATION

Flight Status: Arrived
Operator: Privately registered:
United States
More flights under this callsign
Pilot: Eric W. (14379)
Aircraft: BEECH AIRCRAFT SUPER KING AIR 350
(B350)
More flights by this aircraft type
Origin: KFHR Friday Harbor
United States
Destination: KRNO Reno/Tahoe Intl
United States
More flights between these airports :: More routes between these airports
Route: LKV HARTT HARTT1
File this flight plan on PilotEdge
Remarks:
Altitude:
(Current/Filed)
31,000ft
Speed:
(Current/Filed)
310kts
Departed: 24-Oct-19 05:21 PM
Arrived: 24-Oct-19 07:03 PM
Distance/Time
Traveled:
559nm/1:42
Distance/Time
To Go:
Arrived

Flight Plot

Page will automatically refresh every two minutes.


Map Options




Map Legend


Flown Route
Filed Route
Departure Airport
Arrival Airport
Navaid (VOR, NDB)
Fix

Horizontal Profiles

Position Reports

Time Latitude Longitude Heading Altitude Ground
Speed
24-Oct-19 17:03 48.524650 -123.025765 358 111ft 0kts
24-Oct-19 17:04 48.524650 -123.025765 358 111ft 0kts
24-Oct-19 17:05 48.524650 -123.025765 358 111ft 0kts
24-Oct-19 17:06 48.524650 -123.025765 358 111ft 0kts
24-Oct-19 17:07 48.524650 -123.025765 358 111ft 0kts
24-Oct-19 17:08 48.524650 -123.025765 358 111ft 0kts
24-Oct-19 17:09 48.524650 -123.025765 358 111ft 0kts
24-Oct-19 17:10 48.524650 -123.025765 358 111ft 0kts
24-Oct-19 17:11 48.524650 -123.025765 358 111ft 0kts
24-Oct-19 17:12 48.524650 -123.025765 358 111ft 0kts
24-Oct-19 17:13 48.526409 -123.025551 50 118ft 5kts
24-Oct-19 17:14 48.526413 -123.025459 123 118ft 0kts
24-Oct-19 17:15 48.526413 -123.025459 123 118ft 0kts
24-Oct-19 17:16 48.526297 -123.025293 86 117ft 0kts
24-Oct-19 17:17 48.526297 -123.025282 89 117ft 0kts
24-Oct-19 17:18 48.526297 -123.025282 89 117ft 0kts
24-Oct-19 17:19 48.525940 -123.024673 176 114ft 30kts
24-Oct-19 17:20 48.493226 -123.011762 157 1263ft 162kts
24-Oct-19 17:21 48.449701 -122.990576 163 3440ft 167kts
24-Oct-19 17:22 48.405397 -122.969912 166 5518ft 167kts
24-Oct-19 17:23 48.361327 -122.949436 167 7506ft 172kts
24-Oct-19 17:24 48.314739 -122.927784 169 9317ft 180kts
24-Oct-19 17:25 48.264459 -122.904459 173 10999ft 198kts
24-Oct-19 17:26 48.209774 -122.879205 175 12781ft 212kts
24-Oct-19 17:27 48.152815 -122.852937 176 14448ft 225kts
24-Oct-19 17:28 48.091434 -122.824682 176 16113ft 237kts
24-Oct-19 17:30 48.026354 -122.794803 177 17665ft 249kts
24-Oct-19 17:31 47.959252 -122.764093 176 19070ft 260kts
24-Oct-19 17:32 47.892263 -122.733494 176 20343ft 267kts
24-Oct-19 17:33 47.820371 -122.700762 176 21532ft 273kts
24-Oct-19 17:34 47.750571 -122.669080 176 22368ft 278kts
24-Oct-19 17:35 47.676407 -122.635492 176 23162ft 283kts
24-Oct-19 17:36 47.600799 -122.601365 177 23935ft 287kts
24-Oct-19 17:37 47.524847 -122.567191 177 24773ft 290kts
24-Oct-19 17:38 47.447099 -122.532294 177 25581ft 293kts
24-Oct-19 17:39 47.369144 -122.497449 177 26341ft 296kts
24-Oct-19 17:40 47.293173 -122.463577 176 27021ft 300kts
24-Oct-19 17:41 47.213025 -122.427950 176 27811ft 302kts
24-Oct-19 17:42 47.132953 -122.392424 177 28760ft 295kts
24-Oct-19 17:43 47.055364 -122.358168 177 29816ft 290kts
24-Oct-19 17:44 46.980871 -122.325365 178 30805ft 288kts
24-Oct-19 17:45 46.905686 -122.292428 177 31387ft 301kts
24-Oct-19 17:46 46.827467 -122.258173 176 31373ft 320kts
24-Oct-19 17:47 46.742937 -122.221272 175 31371ft 335kts
24-Oct-19 17:48 46.651508 -122.181510 174 31371ft 346kts
24-Oct-19 17:48 46.573795 -122.147814 174 31370ft 352kts
24-Oct-19 17:50 46.467818 -122.102019 173 31371ft 358kts
24-Oct-19 17:51 46.371945 -122.060758 173 31369ft 361kts
24-Oct-19 17:52 46.275309 -122.019336 173 31260ft 367kts
24-Oct-19 17:52 46.193946 -121.984559 173 31341ft 366kts
24-Oct-19 17:53 46.094463 -121.942203 172 31343ft 377kts
24-Oct-19 17:55 45.975872 -121.891907 172 31342ft 384kts
24-Oct-19 17:55 45.895157 -121.857803 172 31341ft 387kts
24-Oct-19 17:56 45.796776 -121.816376 172 31333ft 388kts
24-Oct-19 17:57 45.692141 -121.772487 172 31335ft 388kts
24-Oct-19 17:58 45.588462 -121.729164 172 31336ft 389kts
24-Oct-19 17:59 45.484302 -121.685816 172 31336ft 390kts
24-Oct-19 18:00 45.380057 -121.642584 171 31339ft 390kts
24-Oct-19 18:01 45.275847 -121.599551 171 31339ft 391kts
24-Oct-19 18:02 45.171384 -121.556558 171 31342ft 392kts
24-Oct-19 18:03 45.066314 -121.513492 171 31343ft 392kts
24-Oct-19 18:04 44.961871 -121.470832 170 31340ft 391kts
24-Oct-19 18:05 44.860501 -121.429605 170 31359ft 390kts
24-Oct-19 18:06 44.756446 -121.387436 170 31324ft 391kts
24-Oct-19 18:07 44.653765 -121.345966 171 31385ft 388kts
24-Oct-19 18:08 44.550603 -121.304464 171 31375ft 387kts
24-Oct-19 18:09 44.447040 -121.262955 171 31377ft 386kts
24-Oct-19 18:10 44.344032 -121.221820 171 31378ft 385kts
24-Oct-19 18:11 44.240960 -121.180808 171 31377ft 385kts
24-Oct-19 18:12 44.137696 -121.139873 171 31374ft 386kts
24-Oct-19 18:13 44.034651 -121.099170 171 31375ft 387kts
24-Oct-19 18:14 43.931171 -121.058450 170 31375ft 387kts
24-Oct-19 18:15 43.828033 -121.018004 170 31365ft 386kts
24-Oct-19 18:16 43.724973 -120.977723 170 31368ft 385kts
24-Oct-19 18:17 43.621899 -120.937595 170 31369ft 385kts
24-Oct-19 18:18 43.518708 -120.897562 170 31371ft 386kts
24-Oct-19 18:19 43.415531 -120.857676 170 31372ft 387kts
24-Oct-19 18:20 43.312137 -120.817847 170 31374ft 387kts
24-Oct-19 18:21 43.208457 -120.778053 170 31366ft 388kts
24-Oct-19 18:22 43.104830 -120.738415 170 31405ft 387kts
24-Oct-19 18:23 43.001498 -120.699033 169 31453ft 386kts
24-Oct-19 18:24 42.897863 -120.659659 169 31452ft 387kts
24-Oct-19 18:25 42.795625 -120.620964 169 31443ft 386kts
24-Oct-19 18:26 42.692246 -120.581967 169 31445ft 386kts
24-Oct-19 18:27 42.588732 -120.543055 169 31446ft 386kts
24-Oct-19 18:28 42.485595 -120.504920 172 31442ft 384kts
24-Oct-19 18:29 42.381351 -120.473621 172 31449ft 384kts
24-Oct-19 18:30 42.277078 -120.442396 172 31450ft 385kts
24-Oct-19 18:31 42.172777 -120.411260 172 31451ft 385kts
24-Oct-19 18:32 42.067926 -120.380072 172 31452ft 385kts
24-Oct-19 18:33 41.964710 -120.349475 172 31450ft 383kts
24-Oct-19 18:34 41.861323 -120.318918 172 31426ft 380kts
24-Oct-19 18:35 41.758245 -120.288560 172 31404ft 377kts
24-Oct-19 18:36 41.656093 -120.258570 172 31412ft 375kts
24-Oct-19 18:37 41.554426 -120.228827 173 31409ft 374kts
24-Oct-19 18:38 41.452937 -120.199228 172 31405ft 373kts
24-Oct-19 18:39 41.351872 -120.169849 172 31406ft 373kts
24-Oct-19 18:40 41.250738 -120.140541 172 31408ft 372kts
24-Oct-19 18:41 41.149730 -120.111365 172 31409ft 372kts
24-Oct-19 18:42 41.048404 -120.082201 172 31030ft 375kts
24-Oct-19 18:43 40.947325 -120.053172 172 29556ft 371kts
24-Oct-19 18:44 40.853303 -120.026264 172 28156ft 368kts
24-Oct-19 18:45 40.754292 -119.994892 170 26647ft 372kts
24-Oct-19 18:46 40.652745 -119.962136 169 25143ft 379kts
24-Oct-19 18:47 40.550057 -119.929110 169 23648ft 383kts
24-Oct-19 18:48 40.446693 -119.895974 169 22159ft 382kts
24-Oct-19 18:49 40.343830 -119.863118 168 20676ft 378kts
24-Oct-19 18:50 40.241947 -119.830645 168 19067ft 379kts
24-Oct-19 18:51 40.140067 -119.798299 168 16892ft 372kts
24-Oct-19 18:52 40.041626 -119.768300 178 14699ft 350kts
24-Oct-19 18:53 39.950135 -119.768137 182 12536ft 308kts
24-Oct-19 18:54 39.874576 -119.762623 178 11814ft 281kts
24-Oct-19 18:55 39.812869 -119.758481 178 10540ft 258kts
24-Oct-19 18:56 39.744328 -119.754644 179 9028ft 237kts
24-Oct-19 18:57 39.682523 -119.763294 187 7517ft 203kts
24-Oct-19 18:58 39.630125 -119.768020 181 6742ft 178kts
24-Oct-19 18:59 39.584904 -119.768649 178 5676ft 150kts
24-Oct-19 19:00 39.546594 -119.769112 180 5074ft 135kts
24-Oct-19 19:01 39.513030 -119.769194 180 4491ft 123kts
24-Oct-19 19:02 39.497351 -119.768271 89 4405ft 14kts
24-Oct-19 19:03 39.499051 -119.765164 0 4403ft 14kts
24-Oct-19 19:04 39.500850 -119.764851 91 4404ft 0kts
24-Oct-19 19:05 39.500850 -119.764851 91 4404ft 0kts
24-Oct-19 19:06 39.500850 -119.764851 91 4404ft 0kts
24-Oct-19 19:07 39.500850 -119.764851 91 4404ft 0kts

Navigation Log

Ident Type
Flight plan parsing failed, navigation log unavailable